Login

wolf79
1 activity; - Last training unit 10/04/2016
10/04/2016 Show to everybody Lunch Walk 5.3 4 00:20:03 15.87 Km\h
08/04/2016 Show to everybody Afternoon Walk 6.01 133 00:20:56 17.22 Km\h
07/04/2016 Show to everybody Evening Walk 5.72 0 00:22:21 15.36 Km\h
06/04/2016 Show to everybody Male alle gambe... C'è qualcosa che non va 56.87 815 03:00:54 18.86 Km\h
03/04/2016 Show to everybody Morning Walk 8.32 10 00:35:16 14.16 Km\h
29/03/2016 Show to everybody Afternoon Ride 54.58 547 03:23:34 16.09 Km\h
26/03/2016 Show to everybody Morning Ride 44.9 593 03:38:53 12.31 Km\h
21/03/2016 Show to everybody Giro post influenza 31.26 135 01:45:32 17.77 Km\h
15/03/2016 Show to everybody Afternoon Ride 40.38 204 02:16:57 17.69 Km\h
13/03/2016 Show to everybody Corsa mattutina 9.28 37 01:16:09 7.31 Km\h
12/03/2016 Show to everybody Morning Ride 28.23 80 01:24:16 20.1 Km\h
09/03/2016 Show to everybody Afternoon Ride 75.33 441 03:37:46 20.76 Km\h
06/03/2016 Show to everybody Morning Run 9.34 33 01:26:36 6.47 Km\h
04/03/2016 Show to everybody Afternoon Ride 37.99 506 02:21:21 16.13 Km\h
01/03/2016 Show to everybody Afternoon Ride 39.61 520 02:16:03 17.47 Km\h
28/02/2016 Show to everybody Morning Walk 17.87 62 00:56:59 18.82 Km\h
25/02/2016 Show to everybody Afternoon Walk 5.5 2 00:16:15 20.31 Km\h
25/02/2016 Show to everybody Evening Walk 5.26 3 00:20:13 15.61 Km\h
23/02/2016 Show to everybody Afternoon Ride 22.85 476 01:16:11 17.99 Km\h
21/02/2016 Show to everybody Morning Hike 9.37 497 01:09:36 8.08 Km\h
14/02/2016 Show to everybody Morning Walk 17.59 66 00:57:29 18.36 Km\h
13/02/2016 Show to everybody Afternoon Walk 15.45 61 00:58:17 15.91 Km\h
10/02/2016 Show to everybody Afternoon Walk 13.53 288 00:55:50 14.54 Km\h
08/02/2016 Show to everybody Lunch Ride 65.72 285 03:06:22 21.16 Km\h
03/02/2016 Show to everybody Afternoon Ride 63.42 308 03:40:38 17.25 Km\h
30/01/2016 Show to everybody Lunch Ride 50.53 832 03:11:02 15.87 Km\h
17/01/2016 Show to everybody Morning Walk 17.51 64 00:57:16 18.34 Km\h
14/01/2016 Show to everybody Afternoon Walk 5.29 4 00:20:29 15.49 Km\h
14/01/2016 Show to everybody Afternoon Walk 5.46 4 00:20:26 16.03 Km\h
27/12/2015 Show to everybody Lunch Walk 14.35 40 00:42:58 20.04 Km\h
20/12/2015 Show to everybody Lunch Ride 38.71 151 02:05:58 18.44 Km\h
07/12/2015 Show to everybody Morning Walk 17.79 68 01:01:38 17.32 Km\h
28/11/2015 Show to everybody Afternoon Run 5.32 51 00:40:13 7.93 Km\h
26/11/2015 Show to everybody Afternoon Walk 5.5 0 00:21:09 15.62 Km\h
26/11/2015 Show to everybody Afternoon Walk 5.38 14 00:20:13 15.98 Km\h
22/11/2015 Show to everybody Morning Hike 10.82 117 00:47:16 13.73 Km\h
18/11/2015 Show to everybody Afternoon Ride 28.96 230 01:45:26 16.48 Km\h
18/11/2015 Show to everybody Afternoon Ride 26.87 64 01:27:52 18.35 Km\h
18/11/2015 Show to everybody Afternoon Ride 26.87 62 01:27:52 18.35 Km\h
15/11/2015 Show to everybody Morning Run 5.99 24 00:51:13 7.01 Km\h
11/11/2015 Show to everybody HR sonno 4.55 0 00:20:26 13.37 Km\h
11/11/2015 Show to everybody Afternoon Ride 41.39 573 02:36:20 15.88 Km\h
06/11/2015 Show to everybody Afternoon Ride 26 224 01:29:29 17.43 Km\h
21/10/2015 Show to everybody Afternoon Ride 46.59 196 02:39:57 17.48 Km\h
16/10/2015 Show to everybody Afternoon Ride 26.84 381 01:15:01 21.47 Km\h
16/10/2015 Show to everybody Afternoon Ride 26.87 421 01:15:01 21.49 Km\h
12/10/2015 Show to everybody Afternoon Ride 21.46 120 01:05:55 19.54 Km\h
07/10/2015 Show to everybody Afternoon Ride 27.35 518 01:47:05 15.32 Km\h
26/09/2015 Show to everybody Afternoon Ride 28.41 360 01:40:01 17.05 Km\h
22/09/2015 Show to everybody Afternoon Ride 21.27 118 01:05:39 19.44 Km\h
22/09/2015 Show to everybody Evening Ride 21.28 110 01:05:39 19.44 Km\h
20/09/2015 Show to everybody Morning Hike 7.97 456 00:45:00 10.62 Km\h
11/09/2015 Show to everybody Afternoon Ride 30.32 686 02:26:49 12.39 Km\h
10/09/2015 Show to everybody Afternoon Walk 4.35 35 00:14:03 18.58 Km\h
03/09/2015 Show to everybody Lunch Activity 20.85 106 01:55:17 10.85 Km\h
01/09/2015 Show to everybody Afternoon Ride 39.01 604 02:22:04 16.47 Km\h
28/08/2015 Show to everybody Senza allenamento...che fatica! 69.62 681 03:28:37 20.02 Km\h
26/08/2015 Show to everybody Afternoon Ride 17.32 59 01:00:51 17.07 Km\h
26/08/2015 Show to everybody Afternoon Ride 27.94 136 01:44:23 16.06 Km\h
25/08/2015 Show to everybody Afternoon Ride 18.5 175 00:49:55 22.24 Km\h
16/08/2015 Show to everybody Morning Run 5.72 112 00:43:07 7.96 Km\h
11/08/2015 Show to everybody Lunch Run 1.99 59 00:14:41 8.12 Km\h
04/08/2015 Show to everybody Morning Run 4.04 67 00:40:22 6.01 Km\h
29/07/2015 Show to everybody 07/29/2015 Moncalieri, Piedmont, Italy 45.33 578 02:07:08 21.4 Km\h
16/07/2015 Show to everybody 07/16/2015 Valle d'Aosta, Italy 4.68 259 00:34:52 8.05 Km\h
15/07/2015 Show to everybody 07/15/2015 Valle d'Aosta, Italy 14.85 595 01:51:41 7.98 Km\h
13/07/2015 Show to everybody 07/13/2015 Valle d'Aosta, Italy 14.01 513 00:31:33 26.64 Km\h
10/07/2015 Show to everybody 07/10/2015 Moncalieri, Piedmont, Italy 45.96 739 02:24:14 19.12 Km\h
08/07/2015 Show to everybody 07/08/2015 Moncalieri, Piedmont, Italy 40.49 278 01:56:34 20.84 Km\h
04/07/2015 Show to everybody 07/04/2015 Moncalieri, Piedmont, Italy 43.73 307 02:07:06 20.64 Km\h
02/07/2015 Show to everybody 07/02/2015 Moncalieri, Piedmont, Italy 45.11 768 02:10:07 20.8 Km\h
30/06/2015 Show to everybody 06/30/2015 Moncalieri, Piedmont, Italy 44.37 785 02:08:23 20.74 Km\h
28/06/2015 Show to everybody 06/28/2015 Piemonte, Italy 14.78 684 01:34:45 9.36 Km\h
21/06/2015 Show to everybody 06/21/2015 Piemonte, Italy 16.87 943 01:55:04 8.8 Km\h
18/06/2015 Show to everybody 06/18/2015 Moncalieri, Piedmont, Italy 31.8 463 01:43:08 18.5 Km\h
01/05/2013 Show to everybody Amiantifera di Balangero 41.38 1076 03:07:10 13.27 Km\h Grand Canyon Al 6.0
20/10/2012 Show to everybody Monastero S.Ignazio 45.42 841 04:06:36 11.05 Km\h Rocky Mountain Altitude 50
06/10/2012 Show to everybody Passo Forchetta - Rifugio Salvin 69.83 1473 05:19:44 13.1 Km\h Rocky Mountain Altitude 50
23/09/2012 Show to everybody Alpe Soglia 51.12 1471 04:38:28 11.01 Km\h Rocky Mountain Altitude 50
Training units 0
Kilometers 0 Km
Vertical gain 0 mt
Hours of riding 00:00:00
Average speed 0 Km/h
Points 33
Live Tracking »

Rocky Mountain Altitude 50 17:45:09 214.14 Km
Grand Canyon Al 6.0 03:07:10 41.38 Km

 
If you stop following this users you will not be able to compare your trainings with his

Now you follow this users and you can compare your trainings


MTB-Mag.com | 2012-2020 Training Camp v.1.6 rev 05